sensor_id;sensor_type;location;lat;lon;timestamp;pressure;altitude;pressure_sealevel;temperature;humidity
37298;BME280;30517;51.932;4.278;2023-07-20T00:00:55;101489.44;;;21.65;46.55
37298;BME280;30517;51.932;4.278;2023-07-20T00:03:36;101493.75;;;21.70;46.56
37298;BME280;30517;51.932;4.278;2023-07-20T00:06:17;101490.25;;;21.68;46.40
37298;BME280;30517;51.932;4.278;2023-07-20T00:08:58;101502.53;;;21.75;46.84
37298;BME280;30517;51.932;4.278;2023-07-20T00:11:39;101515.25;;;21.70;46.64
37298;BME280;30517;51.932;4.278;2023-07-20T00:14:22;101483.88;;;21.47;46.39
37298;BME280;30517;51.932;4.278;2023-07-20T00:17:03;101527.31;;;21.81;46.48
37298;BME280;30517;51.932;4.278;2023-07-20T00:19:44;101533.09;;;21.71;46.89
37298;BME280;30517;51.932;4.278;2023-07-20T00:25:06;101519.16;;;21.61;46.59
37298;BME280;30517;51.932;4.278;2023-07-20T00:27:46;101518.22;;;21.62;46.75
37298;BME280;30517;51.932;4.278;2023-07-20T00:30:27;101516.75;;;21.53;46.86
37298;BME280;30517;51.932;4.278;2023-07-20T00:33:11;101525.28;;;21.64;46.59
37298;BME280;30517;51.932;4.278;2023-07-20T00:35:53;101522.72;;;21.61;46.76
37298;BME280;30517;51.932;4.278;2023-07-20T00:38:33;101507.28;;;21.43;46.84
37298;BME280;30517;51.932;4.278;2023-07-20T00:41:14;101462.50;;;21.20;46.72
37298;BME280;30517;51.932;4.278;2023-07-20T00:43:55;101533.56;;;21.58;46.87
37298;BME280;30517;51.932;4.278;2023-07-20T00:46:36;101523.22;;;21.48;46.94
37298;BME280;30517;51.932;4.278;2023-07-20T00:49:17;101529.94;;;21.59;46.63
37298;BME280;30517;51.932;4.278;2023-07-20T00:52:02;101534.41;;;21.60;46.85
37298;BME280;30517;51.932;4.278;2023-07-20T00:54:44;101513.72;;;21.39;46.65
37298;BME280;30517;51.932;4.278;2023-07-20T00:57:25;101450.38;;;21.08;46.61
37298;BME280;30517;51.932;4.278;2023-07-20T01:00:06;101503.94;;;21.36;46.84
37298;BME280;30517;51.932;4.278;2023-07-20T01:02:47;101510.28;;;21.34;46.76
37298;BME280;30517;51.932;4.278;2023-07-20T01:05:38;101531.44;;;21.43;46.61
37298;BME280;30517;51.932;4.278;2023-07-20T01:08:24;101530.50;;;21.44;46.56
37298;BME280;30517;51.932;4.278;2023-07-20T01:14:11;101518.22;;;21.37;46.76
37298;BME280;30517;51.932;4.278;2023-07-20T01:16:52;101540.34;;;21.43;46.84
37298;BME280;30517;51.932;4.278;2023-07-20T01:19:33;101497.69;;;21.11;47.12
37298;BME280;30517;51.932;4.278;2023-07-20T01:33:48;101540.56;;;21.12;47.14
37298;BME280;30517;51.932;4.278;2023-07-20T01:36:34;101542.03;;;21.21;47.05
37298;BME280;30517;51.932;4.278;2023-07-20T01:39:16;101487.78;;;20.88;46.93
37298;BME280;30517;51.932;4.278;2023-07-20T01:41:57;101542.16;;;21.18;47.20
37298;BME280;30517;51.932;4.278;2023-07-20T01:44:38;101543.78;;;21.22;46.88
37298;BME280;30517;51.932;4.278;2023-07-20T01:47:19;101546.03;;;21.09;47.19
37298;BME280;30517;51.932;4.278;2023-07-20T01:50:00;101515.50;;;20.87;47.09
37298;BME280;30517;51.932;4.278;2023-07-20T01:52:41;101499.63;;;20.82;47.09
37298;BME280;30517;51.932;4.278;2023-07-20T01:55:21;101479.50;;;20.69;46.88
37298;BME280;30517;51.932;4.278;2023-07-20T01:58:02;101549.63;;;21.08;46.75
37298;BME280;30517;51.932;4.278;2023-07-20T02:00:43;101504.06;;;20.82;46.89
37298;BME280;30517;51.932;4.278;2023-07-20T02:03:24;101532.28;;;20.93;46.90
37298;BME280;30517;51.932;4.278;2023-07-20T02:06:06;101445.63;;;20.40;46.88
37298;BME280;30517;51.932;4.278;2023-07-20T02:08:47;101552.50;;;21.04;46.67
37298;BME280;30517;51.932;4.278;2023-07-20T02:11:28;101518.41;;;20.81;46.96
37298;BME280;30517;51.932;4.278;2023-07-20T02:14:09;101481.50;;;20.62;47.06
37298;BME280;30517;51.932;4.278;2023-07-20T02:16:49;101525.72;;;20.75;46.89
37298;BME280;30517;51.932;4.278;2023-07-20T02:19:37;101533.50;;;20.85;47.03
37298;BME280;30517;51.932;4.278;2023-07-20T02:22:18;101528.91;;;20.60;47.37
37298;BME280;30517;51.932;4.278;2023-07-20T02:24:59;101560.28;;;20.85;47.21
37298;BME280;30517;51.932;4.278;2023-07-20T02:27:40;101491.22;;;20.38;46.70
37298;BME280;30517;51.932;4.278;2023-07-20T02:30:21;101515.91;;;20.48;47.22
37298;BME280;30517;51.932;4.278;2023-07-20T02:33:02;101409.16;;;19.81;47.04
37298;BME280;30517;51.932;4.278;2023-07-20T02:35:45;101510.66;;;20.45;47.25
37298;BME280;30517;51.932;4.278;2023-07-20T02:38:26;101561.53;;;20.74;46.87
37298;BME280;30517;51.932;4.278;2023-07-20T02:41:06;101559.00;;;20.70;47.41
37298;BME280;30517;51.932;4.278;2023-07-20T02:43:47;101466.94;;;20.16;47.37
37298;BME280;30517;51.932;4.278;2023-07-20T02:46:28;101564.47;;;20.67;47.32
37298;BME280;30517;51.932;4.278;2023-07-20T02:49:10;101525.03;;;20.42;47.19
37298;BME280;30517;51.932;4.278;2023-07-20T02:51:51;101568.44;;;20.55;47.30
37298;BME280;30517;51.932;4.278;2023-07-20T02:54:32;101469.19;;;20.02;47.22
37298;BME280;30517;51.932;4.278;2023-07-20T02:57:13;101518.16;;;20.33;47.17
37298;BME280;30517;51.932;4.278;2023-07-20T02:59:53;101559.97;;;20.67;47.18
37298;BME280;30517;51.932;4.278;2023-07-20T03:02:35;101568.56;;;20.49;47.22
37298;BME280;30517;51.932;4.278;2023-07-20T03:05:16;101565.69;;;20.57;47.06
37298;BME280;30517;51.932;4.278;2023-07-20T03:07:56;101542.28;;;20.33;47.34
37298;BME280;30517;51.932;4.278;2023-07-20T03:10:43;101556.38;;;20.39;47.11
37298;BME280;30517;51.932;4.278;2023-07-20T03:13:24;101552.59;;;20.46;47.04
37298;BME280;30517;51.932;4.278;2023-07-20T03:16:04;101572.03;;;20.52;46.92
37298;BME280;30517;51.932;4.278;2023-07-20T03:18:45;101542.06;;;20.40;47.27
37298;BME280;30517;51.932;4.278;2023-07-20T03:21:27;101559.91;;;20.41;47.13
37298;BME280;30517;51.932;4.278;2023-07-20T03:24:08;101563.50;;;20.40;47.24
37298;BME280;30517;51.932;4.278;2023-07-20T03:26:49;101531.81;;;20.26;47.33
37298;BME280;30517;51.932;4.278;2023-07-20T03:29:31;101574.09;;;20.44;47.34
37298;BME280;30517;51.932;4.278;2023-07-20T03:32:13;101580.34;;;20.43;47.27
37298;BME280;30517;51.932;4.278;2023-07-20T03:34:53;101581.41;;;20.39;47.30
37298;BME280;30517;51.932;4.278;2023-07-20T03:37:34;101583.44;;;20.31;47.52
37298;BME280;30517;51.932;4.278;2023-07-20T03:40:16;101560.47;;;20.22;47.26
37298;BME280;30517;51.932;4.278;2023-07-20T03:42:57;101531.75;;;19.98;47.18
37298;BME280;30517;51.932;4.278;2023-07-20T03:45:38;101520.56;;;19.85;47.32
37298;BME280;30517;51.932;4.278;2023-07-20T03:48:21;101589.66;;;20.31;47.24
37298;BME280;30517;51.932;4.278;2023-07-20T03:51:02;101580.19;;;20.20;47.54
37298;BME280;30517;51.932;4.278;2023-07-20T03:53:43;101578.31;;;20.23;47.33
37298;BME280;30517;51.932;4.278;2023-07-20T03:56:24;101511.09;;;19.73;47.37
37298;BME280;30517;51.932;4.278;2023-07-20T03:59:05;101531.88;;;19.95;47.61
37298;BME280;30517;51.932;4.278;2023-07-20T04:01:45;101577.47;;;20.21;47.68
37298;BME280;30517;51.932;4.278;2023-07-20T04:04:27;101549.41;;;20.05;47.28
37298;BME280;30517;51.932;4.278;2023-07-20T04:07:08;101571.28;;;20.19;47.25
37298;BME280;30517;51.932;4.278;2023-07-20T04:09:49;101597.06;;;20.23;47.50
37298;BME280;30517;51.932;4.278;2023-07-20T04:12:30;101487.16;;;19.69;47.63
37298;BME280;30517;51.932;4.278;2023-07-20T04:15:11;101580.81;;;20.28;46.89
37298;BME280;30517;51.932;4.278;2023-07-20T04:17:52;101521.44;;;19.85;47.22
37298;BME280;30517;51.932;4.278;2023-07-20T04:20:32;101506.47;;;19.78;47.36
37298;BME280;30517;51.932;4.278;2023-07-20T04:23:13;101557.91;;;19.89;47.84
37298;BME280;30517;51.932;4.278;2023-07-20T04:25:54;101576.38;;;19.99;47.85
37298;BME280;30517;51.932;4.278;2023-07-20T04:28:35;101522.16;;;19.61;47.82
37298;BME280;30517;51.932;4.278;2023-07-20T04:31:16;101482.94;;;19.29;48.18
37298;BME280;30517;51.932;4.278;2023-07-20T04:33:56;101588.97;;;19.95;47.25
37298;BME280;30517;51.932;4.278;2023-07-20T04:36:37;101588.19;;;19.92;47.71
37298;BME280;30517;51.932;4.278;2023-07-20T04:39:18;101574.19;;;19.82;47.67
37298;BME280;30517;51.932;4.278;2023-07-20T04:41:59;101488.13;;;19.33;47.90
37298;BME280;30517;51.932;4.278;2023-07-20T04:44:43;101345.31;;;18.45;48.01
37298;BME280;30517;51.932;4.278;2023-07-20T04:47:23;101544.91;;;19.44;48.59
37298;BME280;30517;51.932;4.278;2023-07-20T04:50:05;101545.59;;;19.51;47.92
37298;BME280;30517;51.932;4.278;2023-07-20T04:52:45;101599.66;;;19.64;48.43
37298;BME280;30517;51.932;4.278;2023-07-20T04:55:28;101540.81;;;19.31;48.41
37298;BME280;30517;51.932;4.278;2023-07-20T04:58:09;101592.59;;;19.61;48.46
37298;BME280;30517;51.932;4.278;2023-07-20T05:00:50;101559.38;;;19.37;48.45
37298;BME280;30517;51.932;4.278;2023-07-20T05:03:31;101597.28;;;19.53;48.90
37298;BME280;30517;51.932;4.278;2023-07-20T05:06:12;101533.97;;;19.21;48.43
37298;BME280;30517;51.932;4.278;2023-07-20T05:08:53;101606.34;;;19.48;48.59
37298;BME280;30517;51.932;4.278;2023-07-20T05:11:34;101605.00;;;19.64;48.24
37298;BME280;30517;51.932;4.278;2023-07-20T05:14:15;101552.88;;;19.13;49.11
37298;BME280;30517;51.932;4.278;2023-07-20T05:16:55;101599.31;;;19.43;48.93
37298;BME280;30517;51.932;4.278;2023-07-20T05:19:36;101595.69;;;19.46;48.98
37298;BME280;30517;51.932;4.278;2023-07-20T05:22:17;101601.28;;;19.37;49.02
37298;BME280;30517;51.932;4.278;2023-07-20T05:24:58;101597.81;;;19.33;48.81
37298;BME280;30517;51.932;4.278;2023-07-20T05:27:39;101593.25;;;19.37;48.73
37298;BME280;30517;51.932;4.278;2023-07-20T05:30:23;101578.50;;;19.22;48.93
37298;BME280;30517;51.932;4.278;2023-07-20T05:33:04;101577.78;;;19.15;49.06
37298;BME280;30517;51.932;4.278;2023-07-20T05:35:45;101599.75;;;19.28;48.93
37298;BME280;30517;51.932;4.278;2023-07-20T05:38:25;101389.06;;;18.05;49.21
37298;BME280;30517;51.932;4.278;2023-07-20T05:41:06;101598.03;;;19.26;49.24
37298;BME280;30517;51.932;4.278;2023-07-20T05:43:50;101604.28;;;19.24;49.22
37298;BME280;30517;51.932;4.278;2023-07-20T05:46:31;101538.47;;;18.85;49.17
37298;BME280;30517;51.932;4.278;2023-07-20T05:49:12;101599.78;;;19.27;49.09
37298;BME280;30517;51.932;4.278;2023-07-20T05:51:52;101545.50;;;18.89;49.09
37298;BME280;30517;51.932;4.278;2023-07-20T05:54:33;101599.75;;;19.28;49.34
37298;BME280;30517;51.932;4.278;2023-07-20T05:57:14;101605.25;;;19.22;49.00
37298;BME280;30517;51.932;4.278;2023-07-20T05:59:55;101569.09;;;19.07;49.10
37298;BME280;30517;51.932;4.278;2023-07-20T06:02:36;101484.06;;;18.51;48.78
37298;BME280;30517;51.932;4.278;2023-07-20T06:05:16;101597.41;;;19.14;49.35
37298;BME280;30517;51.932;4.278;2023-07-20T06:07:57;101603.69;;;19.13;49.42
37298;BME280;30517;51.932;4.278;2023-07-20T06:10:40;101596.63;;;19.11;49.31
37298;BME280;30517;51.932;4.278;2023-07-20T06:13:21;101587.91;;;19.02;49.46
37298;BME280;30517;51.932;4.278;2023-07-20T06:16:02;101598.31;;;19.15;49.48
37298;BME280;30517;51.932;4.278;2023-07-20T06:18:43;101506.78;;;18.32;49.43
37298;BME280;30517;51.932;4.278;2023-07-20T06:21:25;101469.31;;;18.37;49.29
37298;BME280;30517;51.932;4.278;2023-07-20T06:24:06;101594.06;;;19.06;49.44
37298;BME280;30517;51.932;4.278;2023-07-20T06:26:47;101611.50;;;19.21;49.56
37298;BME280;30517;51.932;4.278;2023-07-20T06:29:28;101534.59;;;18.61;49.62
37298;BME280;30517;51.932;4.278;2023-07-20T06:32:09;101614.28;;;19.18;49.42
37298;BME280;30517;51.932;4.278;2023-07-20T06:34:53;101616.09;;;19.16;49.70
37298;BME280;30517;51.932;4.278;2023-07-20T06:37:35;101564.09;;;18.93;49.48
37298;BME280;30517;51.932;4.278;2023-07-20T06:40:16;101577.38;;;18.96;49.45
37298;BME280;30517;51.932;4.278;2023-07-20T06:42:57;101580.94;;;18.97;49.45
37298;BME280;30517;51.932;4.278;2023-07-20T06:45:37;101589.44;;;19.13;49.67
37298;BME280;30517;51.932;4.278;2023-07-20T06:48:19;101608.84;;;19.21;49.47
37298;BME280;30517;51.932;4.278;2023-07-20T06:50:59;101589.44;;;19.13;49.69
37298;BME280;30517;51.932;4.278;2023-07-20T06:53:40;101620.13;;;19.32;49.30
37298;BME280;30517;51.932;4.278;2023-07-20T06:56:21;101633.41;;;19.35;49.59
37298;BME280;30517;51.932;4.278;2023-07-20T06:59:02;101593.56;;;19.26;49.55
37298;BME280;30517;51.932;4.278;2023-07-20T07:01:43;101613.72;;;19.39;49.64
37298;BME280;30517;51.932;4.278;2023-07-20T07:04:24;101616.66;;;19.29;49.70
37298;BME280;30517;51.932;4.278;2023-07-20T07:07:04;101578.66;;;19.16;49.67
37298;BME280;30517;51.932;4.278;2023-07-20T07:09:45;101578.63;;;19.17;49.50
37298;BME280;30517;51.932;4.278;2023-07-20T07:12:26;101535.84;;;18.83;49.46
37298;BME280;30517;51.932;4.278;2023-07-20T07:15:07;101601.41;;;19.32;49.21
37298;BME280;30517;51.932;4.278;2023-07-20T07:17:50;101631.19;;;19.53;49.27
37298;BME280;30517;51.932;4.278;2023-07-20T07:20:31;101633.97;;;19.50;49.37
37298;BME280;30517;51.932;4.278;2023-07-20T07:23:12;101612.84;;;19.39;49.14
37298;BME280;30517;51.932;4.278;2023-07-20T07:25:53;101584.69;;;19.24;49.26
37298;BME280;30517;51.932;4.278;2023-07-20T07:28:34;101603.97;;;19.37;49.24
37298;BME280;30517;51.932;4.278;2023-07-20T07:31:15;101545.22;;;18.99;49.23
37298;BME280;30517;51.932;4.278;2023-07-20T07:33:56;101564.34;;;19.18;48.86
37298;BME280;30517;51.932;4.278;2023-07-20T07:36:37;101596.03;;;19.34;49.21
37298;BME280;30517;51.932;4.278;2023-07-20T07:39:18;101618.72;;;19.52;49.07
37298;BME280;30517;51.932;4.278;2023-07-20T07:41:59;101561.09;;;19.06;48.85
37298;BME280;30517;51.932;4.278;2023-07-20T07:44:39;101637.25;;;19.59;49.31
37298;BME280;30517;51.932;4.278;2023-07-20T07:47:20;101635.41;;;19.61;48.95
37298;BME280;30517;51.932;4.278;2023-07-20T07:50:02;101638.03;;;19.63;48.98
37298;BME280;30517;51.932;4.278;2023-07-20T07:52:43;101632.50;;;19.71;48.76
37298;BME280;30517;51.932;4.278;2023-07-20T07:55:24;101558.72;;;19.28;48.66
37298;BME280;30517;51.932;4.278;2023-07-20T07:58:08;101546.47;;;19.19;49.12
37298;BME280;30517;51.932;4.278;2023-07-20T08:00:49;101619.53;;;19.55;49.20
37298;BME280;30517;51.932;4.278;2023-07-20T08:03:30;101637.75;;;19.74;49.55
37298;BME280;30517;51.932;4.278;2023-07-20T08:06:11;101542.75;;;19.26;49.42
37298;BME280;30517;51.932;4.278;2023-07-20T08:08:52;101581.59;;;19.39;50.12
37298;BME280;30517;51.932;4.278;2023-07-20T08:11:33;101642.66;;;19.91;49.60
37298;BME280;30517;51.932;4.278;2023-07-20T08:14:14;101637.97;;;19.99;49.69
37298;BME280;30517;51.932;4.278;2023-07-20T08:16:55;101639.53;;;20.06;49.49
37298;BME280;30517;51.932;4.278;2023-07-20T08:19:37;101650.25;;;20.06;49.76
37298;BME280;30517;51.932;4.278;2023-07-20T08:22:21;101535.16;;;19.42;49.46
37298;BME280;30517;51.932;4.278;2023-07-20T08:25:02;101643.88;;;20.10;49.43
37298;BME280;30517;51.932;4.278;2023-07-20T08:27:43;101624.28;;;20.09;49.53
37298;BME280;30517;51.932;4.278;2023-07-20T08:30:26;101634.59;;;20.22;49.23
37298;BME280;30517;51.932;4.278;2023-07-20T08:33:07;101644.16;;;20.30;49.23
37298;BME280;30517;51.932;4.278;2023-07-20T08:35:47;101639.88;;;20.25;49.59
37298;BME280;30517;51.932;4.278;2023-07-20T08:38:29;101636.13;;;20.30;49.17
37298;BME280;30517;51.932;4.278;2023-07-20T08:41:13;101633.22;;;20.38;49.15
37298;BME280;30517;51.932;4.278;2023-07-20T08:43:54;101633.91;;;20.45;48.96
37298;BME280;30517;51.932;4.278;2023-07-20T08:46:38;101624.03;;;20.47;49.10
37298;BME280;30517;51.932;4.278;2023-07-20T08:49:23;101628.50;;;20.46;49.11
37298;BME280;30517;51.932;4.278;2023-07-20T08:52:04;101594.06;;;20.34;48.73
37298;BME280;30517;51.932;4.278;2023-07-20T08:54:45;101568.44;;;20.25;48.38
37298;BME280;30517;51.932;4.278;2023-07-20T08:57:26;101594.00;;;20.36;48.67
37298;BME280;30517;51.932;4.278;2023-07-20T09:00:09;101605.97;;;20.53;48.85
37298;BME280;30517;51.932;4.278;2023-07-20T09:02:54;101654.72;;;20.66;48.41
37298;BME280;30517;51.932;4.278;2023-07-20T09:05:35;101555.84;;;20.27;48.48
37298;BME280;30517;51.932;4.278;2023-07-20T09:08:16;101568.03;;;20.38;48.40
37298;BME280;30517;51.932;4.278;2023-07-20T09:10:57;101635.63;;;20.77;48.42
37298;BME280;30517;51.932;4.278;2023-07-20T09:13:38;101638.22;;;20.78;48.32
37298;BME280;30517;51.932;4.278;2023-07-20T09:16:18;101598.56;;;20.62;48.25
37298;BME280;30517;51.932;4.278;2023-07-20T09:18:59;101616.88;;;20.75;48.09
37298;BME280;30517;51.932;4.278;2023-07-20T09:21:48;101603.72;;;20.68;48.35
37298;BME280;30517;51.932;4.278;2023-07-20T09:24:29;101645.03;;;20.90;48.10
37298;BME280;30517;51.932;4.278;2023-07-20T09:27:11;101580.91;;;20.54;47.95
37298;BME280;30517;51.932;4.278;2023-07-20T09:29:52;101603.47;;;20.75;48.12
37298;BME280;30517;51.932;4.278;2023-07-20T09:32:45;101637.63;;;20.97;48.11
37298;BME280;30517;51.932;4.278;2023-07-20T09:35:26;101591.19;;;20.68;48.15
37298;BME280;30517;51.932;4.278;2023-07-20T09:38:07;101641.03;;;21.02;48.16
37298;BME280;30517;51.932;4.278;2023-07-20T09:40:50;101614.22;;;20.75;48.00
37298;BME280;30517;51.932;4.278;2023-07-20T09:43:34;101640.84;;;21.08;47.97
37298;BME280;30517;51.932;4.278;2023-07-20T09:46:15;101649.75;;;21.09;47.88
37298;BME280;30517;51.932;4.278;2023-07-20T09:48:57;101647.03;;;21.10;47.92
37298;BME280;30517;51.932;4.278;2023-07-20T09:51:38;101644.25;;;21.13;47.87
37298;BME280;30517;51.932;4.278;2023-07-20T09:54:21;101389.81;;;19.71;47.77
37298;BME280;30517;51.932;4.278;2023-07-20T09:57:03;101557.16;;;20.72;47.85
37298;BME280;30517;51.932;4.278;2023-07-20T09:59:44;101641.31;;;21.21;47.64
37298;BME280;30517;51.932;4.278;2023-07-20T10:02:32;101470.13;;;20.27;47.85
37298;BME280;30517;51.932;4.278;2023-07-20T10:05:14;101640.31;;;21.24;47.77
37298;BME280;30517;51.932;4.278;2023-07-20T10:07:56;101631.34;;;21.25;47.65
37298;BME280;30517;51.932;4.278;2023-07-20T10:10:40;101633.00;;;21.29;47.64
37298;BME280;30517;51.932;4.278;2023-07-20T10:13:27;101636.50;;;21.31;47.79
37298;BME280;30517;51.932;4.278;2023-07-20T10:16:12;101634.53;;;21.36;47.54
37298;BME280;30517;51.932;4.278;2023-07-20T10:19:22;101591.72;;;21.06;47.49
37298;BME280;30517;51.932;4.278;2023-07-20T10:22:26;101629.09;;;21.39;47.54
37298;BME280;30517;51.932;4.278;2023-07-20T10:25:09;101638.88;;;21.41;47.75
37298;BME280;30517;51.932;4.278;2023-07-20T10:27:50;101601.09;;;21.19;47.41
37298;BME280;30517;51.932;4.278;2023-07-20T10:30:35;101616.69;;;21.35;47.63
37298;BME280;30517;51.932;4.278;2023-07-20T10:33:17;101575.31;;;21.15;47.50
37298;BME280;30517;51.932;4.278;2023-07-20T10:36:04;101609.28;;;21.43;47.44
37298;BME280;30517;51.932;4.278;2023-07-20T10:44:12;101637.38;;;21.58;47.57
37298;BME280;30517;51.932;4.278;2023-07-20T10:46:59;101619.41;;;21.60;47.25
37298;BME280;30517;51.932;4.278;2023-07-20T10:49:58;101621.09;;;21.62;47.61
37298;BME280;30517;51.932;4.278;2023-07-20T10:52:40;101624.50;;;21.68;47.06
37298;BME280;30517;51.932;4.278;2023-07-20T10:55:21;101511.31;;;21.05;47.37
37298;BME280;30517;51.932;4.278;2023-07-20T10:58:13;101618.13;;;21.70;47.54
37298;BME280;30517;51.932;4.278;2023-07-20T11:01:03;101609.97;;;21.73;47.25
37298;BME280;30517;51.932;4.278;2023-07-20T11:03:49;101583.63;;;21.59;47.40
37298;BME280;30517;51.932;4.278;2023-07-20T11:06:31;101605.41;;;21.75;47.42
37298;BME280;30517;51.932;4.278;2023-07-20T11:09:14;101608.78;;;21.82;47.42
37298;BME280;30517;51.932;4.278;2023-07-20T11:12:11;101542.13;;;21.45;47.50
37298;BME280;30517;51.932;4.278;2023-07-20T11:14:55;101510.41;;;21.31;46.98
37298;BME280;30517;51.932;4.278;2023-07-20T11:17:36;101610.16;;;21.92;47.04
37298;BME280;30517;51.932;4.278;2023-07-20T11:20:19;101595.00;;;21.91;46.97
37298;BME280;30517;51.932;4.278;2023-07-20T11:23:01;101595.63;;;21.98;46.95
37298;BME280;30517;51.932;4.278;2023-07-20T11:25:42;101544.78;;;21.70;46.98
37298;BME280;30517;51.932;4.278;2023-07-20T11:28:23;101588.75;;;21.91;47.02
37298;BME280;30517;51.932;4.278;2023-07-20T11:31:04;101508.59;;;21.56;47.08
37298;BME280;30517;51.932;4.278;2023-07-20T11:33:45;101599.66;;;22.09;46.97
37298;BME280;30517;51.932;4.278;2023-07-20T11:36:26;101552.06;;;21.90;46.62
37298;BME280;30517;51.932;4.278;2023-07-20T11:39:15;101585.03;;;22.17;46.97
37298;BME280;30517;51.932;4.278;2023-07-20T11:41:56;101548.97;;;22.00;46.91
37298;BME280;30517;51.932;4.278;2023-07-20T11:44:37;101583.88;;;22.25;46.97
37298;BME280;30517;51.932;4.278;2023-07-20T11:47:18;101559.16;;;22.14;46.89
37298;BME280;30517;51.932;4.278;2023-07-20T11:50:03;101572.91;;;22.30;46.82
37298;BME280;30517;51.932;4.278;2023-07-20T11:52:44;101547.44;;;22.17;46.74
37298;BME280;30517;51.932;4.278;2023-07-20T11:55:25;101555.16;;;22.26;46.80
37298;BME280;30517;51.932;4.278;2023-07-20T11:58:08;101505.81;;;22.05;46.76
37298;BME280;30517;51.932;4.278;2023-07-20T12:00:49;101545.13;;;22.31;46.70
37298;BME280;30517;51.932;4.278;2023-07-20T12:03:30;101560.59;;;22.46;46.69
37298;BME280;30517;51.932;4.278;2023-07-20T12:06:11;101588.63;;;22.63;46.47
37298;BME280;30517;51.932;4.278;2023-07-20T12:08:54;101574.94;;;22.69;46.74
37298;BME280;30517;51.932;4.278;2023-07-20T12:11:39;101554.75;;;22.59;46.67
37298;BME280;30517;51.932;4.278;2023-07-20T12:14:19;101556.34;;;22.63;46.67
37298;BME280;30517;51.932;4.278;2023-07-20T12:17:00;101509.63;;;22.45;46.52
37298;BME280;30517;51.932;4.278;2023-07-20T12:19:41;101576.91;;;22.86;46.49
37298;BME280;30517;51.932;4.278;2023-07-20T12:22:22;101566.91;;;22.89;46.55
37298;BME280;30517;51.932;4.278;2023-07-20T12:25:05;101566.03;;;22.89;46.30
37298;BME280;30517;51.932;4.278;2023-07-20T12:27:48;101542.00;;;22.84;45.85
37298;BME280;30517;51.932;4.278;2023-07-20T12:30:29;101536.75;;;22.81;46.37
37298;BME280;30517;51.932;4.278;2023-07-20T12:33:13;101530.31;;;22.85;45.90
37298;BME280;30517;51.932;4.278;2023-07-20T12:35:57;101565.88;;;23.14;46.50
37298;BME280;30517;51.932;4.278;2023-07-20T12:38:39;101570.06;;;23.21;45.71
37298;BME280;30517;51.932;4.278;2023-07-20T12:41:21;101565.34;;;23.26;45.46
37298;BME280;30517;51.932;4.278;2023-07-20T12:44:02;101569.66;;;23.30;45.80
37298;BME280;30517;51.932;4.278;2023-07-20T12:46:43;101574.69;;;23.38;45.63
37298;BME280;30517;51.932;4.278;2023-07-20T12:49:24;101570.13;;;23.40;45.20
37298;BME280;30517;51.932;4.278;2023-07-20T12:52:05;101563.69;;;23.44;45.40
37298;BME280;30517;51.932;4.278;2023-07-20T12:54:46;101561.63;;;23.49;45.44
37298;BME280;30517;51.932;4.278;2023-07-20T12:57:27;101557.06;;;23.51;44.85
37298;BME280;30517;51.932;4.278;2023-07-20T13:00:13;101529.75;;;23.40;45.37
37298;BME280;30517;51.932;4.278;2023-07-20T13:02:54;101560.06;;;23.64;44.74
37298;BME280;30517;51.932;4.278;2023-07-20T13:05:35;101548.50;;;23.62;44.56
37298;BME280;30517;51.932;4.278;2023-07-20T13:08:16;101543.25;;;23.59;44.68
37298;BME280;30517;51.932;4.278;2023-07-20T13:10:58;101497.50;;;23.38;44.95
37298;BME280;30517;51.932;4.278;2023-07-20T13:13:40;101535.03;;;23.62;44.66
37298;BME280;30517;51.932;4.278;2023-07-20T13:16:21;101492.91;;;23.40;44.60
37298;BME280;30517;51.932;4.278;2023-07-20T13:19:02;101454.25;;;23.04;45.05
37298;BME280;30517;51.932;4.278;2023-07-20T13:21:43;101551.84;;;23.67;44.87
37298;BME280;30517;51.932;4.278;2023-07-20T13:24:24;101546.16;;;23.75;44.88
37298;BME280;30517;51.932;4.278;2023-07-20T13:27:05;101515.88;;;23.68;44.68
37298;BME280;30517;51.932;4.278;2023-07-20T13:29:46;101537.88;;;23.79;44.54
37298;BME280;30517;51.932;4.278;2023-07-20T13:32:26;101419.34;;;23.21;44.54
37298;BME280;30517;51.932;4.278;2023-07-20T13:35:07;101520.44;;;23.87;44.69
37298;BME280;30517;51.932;4.278;2023-07-20T13:37:48;101534.16;;;24.01;44.25
37298;BME280;30517;51.932;4.278;2023-07-20T13:40:29;101542.28;;;24.18;44.36
37298;BME280;30517;51.932;4.278;2023-07-20T13:43:10;101510.41;;;24.09;44.05
37298;BME280;30517;51.932;4.278;2023-07-20T13:45:52;101509.22;;;24.15;44.35
37298;BME280;30517;51.932;4.278;2023-07-20T13:48:32;101529.59;;;24.39;44.43
37298;BME280;30517;51.932;4.278;2023-07-20T13:51:13;101531.97;;;24.47;44.35
37298;BME280;30517;51.932;4.278;2023-07-20T13:53:54;101515.16;;;24.40;44.19
37298;BME280;30517;51.932;4.278;2023-07-20T13:56:35;101528.94;;;24.53;44.13
37298;BME280;30517;51.932;4.278;2023-07-20T13:59:17;101511.31;;;24.46;44.42
37298;BME280;30517;51.932;4.278;2023-07-20T14:01:58;101526.78;;;24.60;44.33
37298;BME280;30517;51.932;4.278;2023-07-20T14:04:39;101516.91;;;24.60;44.04
37298;BME280;30517;51.932;4.278;2023-07-20T14:07:22;101486.88;;;24.49;44.07
37298;BME280;30517;51.932;4.278;2023-07-20T14:10:04;101429.78;;;24.22;44.29
37298;BME280;30517;51.932;4.278;2023-07-20T14:12:45;101450.53;;;24.39;43.53
37298;BME280;30517;51.932;4.278;2023-07-20T14:15:26;101520.72;;;24.91;44.05
37298;BME280;30517;51.932;4.278;2023-07-20T14:18:06;101482.97;;;24.73;43.83
37298;BME280;30517;51.932;4.278;2023-07-20T14:20:47;101510.81;;;24.91;43.79
37298;BME280;30517;51.932;4.278;2023-07-20T14:23:28;101422.16;;;24.49;43.85
37298;BME280;30517;51.932;4.278;2023-07-20T14:26:09;101513.66;;;25.06;44.11
37298;BME280;30517;51.932;4.278;2023-07-20T14:28:50;101471.59;;;24.84;43.58